Time;durP1;ratioP1;P1;durP2;ratioP2;P2;SDS_P1;SDS_P2;PMS_P1;PMS_P2;Temp;Humidity;BMP_temperature;BMP_pressure;BME280_temperature;BME280_humidity;BME280_pressure;Samples;Min_cycle;Max_cycle;Signal;HPM_P1;HPM_P2
2023/01/07 00:01:07;;;;;;;;;;;10.00;99.90;;;;;;5054547;28;19921;-59
2023/01/07 00:03:36;;;;;;;;;;;9.90;99.90;;;;;;5054974;28;19925;-60
2023/01/07 00:06:03;;;;;;;;;;;10.00;99.90;;;;;;5054469;28;19921;-60
2023/01/07 00:08:30;;;;;;;;;;;10.00;99.90;;;;;;5054785;28;19920;-60
2023/01/07 00:10:57;;;;;;;;;;;9.90;99.90;;;;;;5054550;28;19920;-60
2023/01/07 00:13:24;;;;;;;;;;;9.90;99.90;;;;;;5054694;28;19974;-59
2023/01/07 00:15:50;;;;;;;;;;;9.90;99.90;;;;;;5054236;28;19920;-58
2023/01/07 00:18:17;;;;;;;;;;;10.00;99.90;;;;;;5054591;28;19966;-60
2023/01/07 00:20:45;;;;;;;;;;;10.00;99.90;;;;;;5054264;28;19975;-60
2023/01/07 00:23:11;;;;;;;;;;;9.90;99.90;;;;;;5046277;28;19921;-59
2023/01/07 00:25:38;;;;;;;;;;;10.00;99.90;;;;;;5042336;28;19925;-59
2023/01/07 00:28:04;;;;;;;;;;;10.00;99.90;;;;;;5034217;28;19979;-59
2023/01/07 00:30:31;;;;;;;;;;;10.00;99.90;;;;;;5034136;28;19928;-60
2023/01/07 00:33:03;;;;;;;;;;;10.00;99.90;;;;;;5034469;28;19929;-57
2023/01/07 00:35:30;;;;;;;;;;;10.00;99.90;;;;;;5034603;28;19921;-56
2023/01/07 00:37:58;;;;;;;;;;;10.00;99.90;;;;;;5034147;28;19929;-52
2023/01/07 00:40:25;;;;;;;;;;;10.00;99.90;;;;;;5033651;28;19929;-59
2023/01/07 00:42:55;;;;;;;;;;;10.00;99.90;;;;;;5033360;28;20346;-58
2023/01/07 00:45:22;;;;;;;;;;;10.00;99.90;;;;;;5034330;28;19953;-57
2023/01/07 00:47:52;;;;;;;;;;;10.00;99.90;;;;;;5034074;28;19925;-60
2023/01/07 00:50:19;;;;;;;;;;;10.00;99.90;;;;;;5034030;28;20537;-60
2023/01/07 00:52:45;;;;;;;;;;;10.00;99.90;;;;;;5038717;28;19974;-60
2023/01/07 00:55:14;;;;;;;;;;;10.00;99.90;;;;;;5045450;28;19920;-59
2023/01/07 00:57:41;;;;;;;;;;;10.00;99.90;;;;;;5053376;28;20008;-57
2023/01/07 01:00:08;;;;;;;;;;;10.00;99.90;;;;;;5053692;28;19920;-60
2023/01/07 01:02:34;;;;;;;;;;;10.00;99.90;;;;;;5053677;28;20375;-60
2023/01/07 01:05:01;;;;;;;;;;;10.00;99.90;;;;;;5053738;28;19921;-58
2023/01/07 01:07:27;;;;;;;;;;;10.00;99.90;;;;;;5053358;28;19951;-58
2023/01/07 01:09:54;;;;;;;;;;;10.00;99.90;;;;;;5053170;28;19924;-59
2023/01/07 01:12:22;;;;;;;;;;;10.00;99.90;;;;;;5053477;28;19920;-59
2023/01/07 01:14:48;;;;;;;;;;;10.00;99.90;;;;;;5053391;28;19921;-59
2023/01/07 01:17:15;;;;;;;;;;;10.00;99.90;;;;;;5053131;28;20280;-60
2023/01/07 01:19:41;;;;;;;;;;;10.00;99.90;;;;;;5053080;28;19946;-60
2023/01/07 01:22:08;;;;;;;;;;;9.90;99.90;;;;;;5053077;28;19974;-58
2023/01/07 01:24:34;;;;;;;;;;;9.90;99.90;;;;;;5049464;28;19925;-58
2023/01/07 01:27:01;;;;;;;;;;;9.90;99.90;;;;;;5033344;28;19924;-60
2023/01/07 01:29:29;;;;;;;;;;;10.00;99.90;;;;;;5033029;28;20331;-58
2023/01/07 01:31:55;;;;;;;;;;;10.00;99.90;;;;;;5033274;28;19921;-59
2023/01/07 01:34:22;;;;;;;;;;;10.00;99.90;;;;;;5033056;28;19921;-57
2023/01/07 01:36:48;;;;;;;;;;;10.00;99.90;;;;;;5032879;28;19920;-58
2023/01/07 01:39:15;;;;;;;;;;;10.00;99.90;;;;;;5033220;28;19928;-59
2023/01/07 01:41:41;;;;;;;;;;;10.00;99.90;;;;;;5033070;28;19920;-59
2023/01/07 01:44:26;;;;;;;;;;;10.00;99.90;;;;;;5033003;28;20331;-57
2023/01/07 01:46:54;;;;;;;;;;;10.00;99.90;;;;;;5032837;28;19921;-59
2023/01/07 01:49:23;;;;;;;;;;;10.00;99.90;;;;;;5032686;28;19928;-59
2023/01/07 01:51:58;;;;;;;;;;;10.00;99.90;;;;;;5032153;28;19925;-60
2023/01/07 01:54:24;;;;;;;;;;;10.00;99.90;;;;;;5042983;28;19924;-58
2023/01/07 01:56:52;;;;;;;;;;;10.00;99.90;;;;;;5052424;28;19967;-55
2023/01/07 01:59:20;;;;;;;;;;;10.00;99.90;;;;;;5052554;28;20042;-60
2023/01/07 02:01:47;;;;;;;;;;;10.00;99.90;;;;;;5052617;28;19921;-56
2023/01/07 02:04:16;;;;;;;;;;;10.10;99.90;;;;;;5052266;28;20023;-58
2023/01/07 02:06:46;;;;;;;;;;;10.10;99.90;;;;;;5052153;28;20446;-60
2023/01/07 02:09:12;;;;;;;;;;;10.10;99.90;;;;;;5052332;28;19939;-59
2023/01/07 02:11:44;;;;;;;;;;;10.10;99.90;;;;;;5052383;28;20371;-60
2023/01/07 02:14:19;;;;;;;;;;;10.00;99.90;;;;;;5052252;28;19924;-57
2023/01/07 02:16:50;;;;;;;;;;;10.10;99.90;;;;;;5052253;28;19927;-57
2023/01/07 02:19:30;;;;;;;;;;;10.10;99.90;;;;;;5052307;28;19920;-59
2023/01/07 02:21:59;;;;;;;;;;;10.00;99.90;;;;;;5052152;28;20403;-59
2023/01/07 02:24:42;;;;;;;;;;;10.10;99.90;;;;;;5041444;28;19928;-59
2023/01/07 02:27:27;;;;;;;;;;;10.10;99.90;;;;;;5032269;28;19925;-57
2023/01/07 02:30:12;;;;;;;;;;;10.00;99.90;;;;;;5032326;28;19921;-56
2023/01/07 02:32:47;;;;;;;;;;;10.10;99.90;;;;;;5032565;28;19975;-59
2023/01/07 02:35:18;;;;;;;;;;;10.00;99.90;;;;;;5032205;28;20045;-59
2023/01/07 02:37:50;;;;;;;;;;;10.10;99.90;;;;;;5032212;28;19928;-59
2023/01/07 02:40:20;;;;;;;;;;;10.00;99.90;;;;;;5032312;28;19921;-60
2023/01/07 02:42:53;;;;;;;;;;;10.00;99.90;;;;;;5032228;28;20426;-60
2023/01/07 02:45:23;;;;;;;;;;;10.00;99.90;;;;;;5032017;28;19925;-59
2023/01/07 02:47:53;;;;;;;;;;;10.00;99.90;;;;;;5031954;28;20347;-59
2023/01/07 02:50:20;;;;;;;;;;;10.00;99.90;;;;;;5032134;28;19983;-59
2023/01/07 02:52:46;;;;;;;;;;;10.00;99.90;;;;;;5037368;28;19920;-60
2023/01/07 02:55:14;;;;;;;;;;;9.90;99.90;;;;;;5043571;28;19925;-60
2023/01/07 02:58:05;;;;;;;;;;;9.90;99.90;;;;;;5051795;28;19921;-60
2023/01/07 03:00:39;;;;;;;;;;;9.90;99.90;;;;;;5052068;28;20589;-60
2023/01/07 03:03:24;;;;;;;;;;;9.80;99.90;;;;;;5054676;28;19974;-59
2023/01/07 03:05:56;;;;;;;;;;;9.80;99.90;;;;;;5055951;28;19975;-60
2023/01/07 03:08:30;;;;;;;;;;;9.80;99.90;;;;;;5055866;28;20498;-60
2023/01/07 03:10:58;;;;;;;;;;;9.90;99.90;;;;;;5055651;28;19921;-60
2023/01/07 03:13:29;;;;;;;;;;;9.90;99.90;;;;;;5055695;28;20340;-59
2023/01/07 03:16:01;;;;;;;;;;;9.90;99.90;;;;;;5055478;28;19928;-59
2023/01/07 03:18:29;;;;;;;;;;;9.90;99.90;;;;;;5055803;28;19970;-60
2023/01/07 03:20:57;;;;;;;;;;;9.90;99.90;;;;;;5055536;28;19929;-60
2023/01/07 03:23:25;;;;;;;;;;;9.90;99.90;;;;;;5047262;28;19928;-59
2023/01/07 03:25:53;;;;;;;;;;;9.90;99.90;;;;;;5040607;28;20433;-58
2023/01/07 03:28:26;;;;;;;;;;;10.00;99.90;;;;;;5035542;28;20427;-58
2023/01/07 03:30:53;;;;;;;;;;;10.00;99.90;;;;;;5035256;28;20555;-59
2023/01/07 03:33:23;;;;;;;;;;;9.90;99.90;;;;;;5035484;28;19921;-59
2023/01/07 03:35:52;;;;;;;;;;;9.90;99.90;;;;;;5035329;28;19925;-58
2023/01/07 03:38:20;;;;;;;;;;;9.90;99.90;;;;;;5034817;28;20396;-58
2023/01/07 03:40:47;;;;;;;;;;;9.90;99.90;;;;;;5034921;28;19921;-59
2023/01/07 03:43:13;;;;;;;;;;;9.90;99.90;;;;;;5034791;28;19925;-60
2023/01/07 03:45:40;;;;;;;;;;;10.00;99.90;;;;;;5035038;28;19924;-59
2023/01/07 03:48:07;;;;;;;;;;;10.00;99.90;;;;;;5034820;28;20003;-57
2023/01/07 03:50:33;;;;;;;;;;;10.00;99.90;;;;;;5034992;28;19924;-57
2023/01/07 03:53:01;;;;;;;;;;;10.00;99.90;;;;;;5042008;28;19920;-59
2023/01/07 03:55:27;;;;;;;;;;;10.00;99.90;;;;;;5046774;28;19924;-60
2023/01/07 03:57:55;;;;;;;;;;;10.00;99.90;;;;;;5054705;28;19951;-59
2023/01/07 04:00:21;;;;;;;;;;;10.00;99.90;;;;;;5054700;28;20280;-60
2023/01/07 04:02:48;;;;;;;;;;;10.00;99.90;;;;;;5054122;28;20284;-58
2023/01/07 04:05:14;;;;;;;;;;;10.00;99.90;;;;;;5054868;28;19928;-58
2023/01/07 04:07:41;;;;;;;;;;;10.00;99.90;;;;;;5054341;28;19924;-58
2023/01/07 04:10:09;;;;;;;;;;;9.90;99.90;;;;;;5054615;28;19921;-60
2023/01/07 04:12:36;;;;;;;;;;;9.90;99.90;;;;;;5054683;28;19920;-60
2023/01/07 04:15:03;;;;;;;;;;;9.80;99.90;;;;;;5053550;28;19928;-60
2023/01/07 04:17:29;;;;;;;;;;;9.80;99.90;;;;;;5054448;28;19928;-58
2023/01/07 04:19:56;;;;;;;;;;;9.70;99.90;;;;;;5054432;28;19921;-59
2023/01/07 04:22:22;;;;;;;;;;;9.70;99.90;;;;;;5052527;28;20326;-59
2023/01/07 04:24:49;;;;;;;;;;;9.70;99.90;;;;;;5042613;28;19948;-60
2023/01/07 04:27:17;;;;;;;;;;;9.60;99.90;;;;;;5034332;28;19974;-60
2023/01/07 04:29:43;;;;;;;;;;;9.60;99.90;;;;;;5034215;28;19947;-60
2023/01/07 04:32:10;;;;;;;;;;;9.70;99.90;;;;;;5034225;28;19936;-60
2023/01/07 04:34:36;;;;;;;;;;;9.60;99.90;;;;;;5034448;28;19921;-60
2023/01/07 04:37:03;;;;;;;;;;;9.60;99.90;;;;;;5034022;28;20498;-60
2023/01/07 04:39:29;;;;;;;;;;;9.60;99.90;;;;;;5033785;28;19921;-59
2023/01/07 04:41:56;;;;;;;;;;;9.50;99.90;;;;;;5034192;28;19921;-60
2023/01/07 04:44:24;;;;;;;;;;;9.50;99.90;;;;;;5034014;28;19983;-57
2023/01/07 04:46:50;;;;;;;;;;;9.40;99.90;;;;;;5033834;28;20016;-60
2023/01/07 04:49:17;;;;;;;;;;;9.40;99.90;;;;;;5034038;28;19944;-59
2023/01/07 04:51:44;;;;;;;;;;;9.40;99.90;;;;;;5033939;28;19921;-60
2023/01/07 04:54:10;;;;;;;;;;;9.40;99.90;;;;;;5042090;28;19983;-60
2023/01/07 04:56:37;;;;;;;;;;;9.40;99.90;;;;;;5053893;28;19974;-60
2023/01/07 04:59:03;;;;;;;;;;;9.40;99.90;;;;;;5053371;28;19921;-60
2023/01/07 05:01:31;;;;;;;;;;;9.30;99.90;;;;;;5053654;28;20398;-60
2023/01/07 05:03:58;;;;;;;;;;;9.30;99.90;;;;;;5053824;28;20019;-57
2023/01/07 05:06:24;;;;;;;;;;;9.30;99.90;;;;;;5053508;28;19920;-59
2023/01/07 05:08:51;;;;;;;;;;;9.30;99.90;;;;;;5053687;28;20411;-60
2023/01/07 05:11:20;;;;;;;;;;;9.30;99.90;;;;;;5053540;28;19920;-57
2023/01/07 05:13:47;;;;;;;;;;;9.30;99.90;;;;;;5053225;28;20353;-58
2023/01/07 05:16:13;;;;;;;;;;;9.30;99.90;;;;;;5053527;28;19924;-60
2023/01/07 05:18:41;;;;;;;;;;;9.30;99.90;;;;;;5053656;28;19921;-55
2023/01/07 05:21:09;;;;;;;;;;;9.30;99.90;;;;;;5053400;28;19928;-57
2023/01/07 05:23:35;;;;;;;;;;;9.30;99.90;;;;;;5045041;28;19925;-58
2023/01/07 05:26:02;;;;;;;;;;;9.30;99.90;;;;;;5037278;28;20415;-59
2023/01/07 05:28:29;;;;;;;;;;;9.30;99.90;;;;;;5033437;28;19944;-59
2023/01/07 05:30:55;;;;;;;;;;;9.30;99.90;;;;;;5032924;28;19966;-59
2023/01/07 05:33:22;;;;;;;;;;;9.20;99.90;;;;;;5033374;28;19921;-59
2023/01/07 05:35:50;;;;;;;;;;;9.20;99.90;;;;;;5033385;28;19921;-60
2023/01/07 05:38:16;;;;;;;;;;;9.20;99.90;;;;;;5033230;28;19961;-58
2023/01/07 05:40:43;;;;;;;;;;;9.30;99.90;;;;;;5033179;28;20376;-57
2023/01/07 05:43:09;;;;;;;;;;;9.30;99.90;;;;;;5033202;28;20380;-59
2023/01/07 05:45:36;;;;;;;;;;;9.30;99.90;;;;;;5033512;28;19978;-59
2023/01/07 05:48:02;;;;;;;;;;;9.20;99.90;;;;;;5033004;28;19928;-59
2023/01/07 05:50:29;;;;;;;;;;;9.30;99.90;;;;;;5032709;28;19925;-60
2023/01/07 05:52:58;;;;;;;;;;;9.30;99.90;;;;;;5039706;28;19927;-60
2023/01/07 05:55:24;;;;;;;;;;;9.30;99.90;;;;;;5044333;28;19920;-59
2023/01/07 05:57:51;;;;;;;;;;;9.20;99.90;;;;;;5052038;28;20379;-60
2023/01/07 06:00:17;;;;;;;;;;;9.20;99.90;;;;;;5052447;28;19924;-60
2023/01/07 06:02:44;;;;;;;;;;;9.20;99.90;;;;;;5052674;28;19921;-60
2023/01/07 06:05:11;;;;;;;;;;;9.20;99.90;;;;;;5052499;28;19921;-60
2023/01/07 06:07:37;;;;;;;;;;;9.10;99.90;;;;;;5052250;28;19974;-59
2023/01/07 06:10:05;;;;;;;;;;;9.10;99.90;;;;;;5052506;28;19978;-59
2023/01/07 06:12:32;;;;;;;;;;;9.10;99.90;;;;;;5052660;28;19924;-59
2023/01/07 06:14:59;;;;;;;;;;;9.20;99.90;;;;;;5052522;28;19921;-59
2023/01/07 06:17:26;;;;;;;;;;;9.20;99.90;;;;;;5049779;28;20004;-60
2023/01/07 06:19:52;;;;;;;;;;;9.20;99.90;;;;;;5031743;28;20339;-58
2023/01/07 06:22:19;;;;;;;;;;;9.20;99.90;;;;;;5032784;28;19921;-59
2023/01/07 06:24:45;;;;;;;;;;;9.20;99.90;;;;;;5043982;28;19925;-60
2023/01/07 06:27:13;;;;;;;;;;;9.20;99.90;;;;;;5052194;28;19920;-60
2023/01/07 06:29:40;;;;;;;;;;;9.20;99.90;;;;;;5052624;28;19921;-59
2023/01/07 06:32:06;;;;;;;;;;;9.20;99.90;;;;;;5052151;28;19986;-59
2023/01/07 06:34:33;;;;;;;;;;;9.20;99.90;;;;;;5052285;28;19936;-59
2023/01/07 06:36:59;;;;;;;;;;;9.10;99.90;;;;;;5053405;28;19927;-59
2023/01/07 06:39:26;;;;;;;;;;;9.20;99.90;;;;;;5058944;28;19970;-60
2023/01/07 06:41:53;;;;;;;;;;;9.20;99.90;;;;;;5058828;28;20437;-60
2023/01/07 06:44:20;;;;;;;;;;;9.30;99.90;;;;;;5058940;28;19990;-60
2023/01/07 06:46:47;;;;;;;;;;;9.20;99.90;;;;;;5058586;28;20326;-59
2023/01/07 06:49:13;;;;;;;;;;;9.20;99.90;;;;;;5058818;28;19925;-60
2023/01/07 06:51:40;;;;;;;;;;;9.20;99.90;;;;;;5058397;28;19924;-60
2023/01/07 06:54:06;;;;;;;;;;;9.20;99.90;;;;;;5050379;28;20433;-59
2023/01/07 06:56:33;;;;;;;;;;;9.20;99.90;;;;;;5038732;28;19921;-59
2023/01/07 06:59:00;;;;;;;;;;;9.20;99.90;;;;;;5038638;28;19920;-60
2023/01/07 07:01:28;;;;;;;;;;;9.30;99.90;;;;;;5038683;28;19925;-59
2023/01/07 07:03:54;;;;;;;;;;;9.30;99.90;;;;;;5038502;28;20307;-59
2023/01/07 07:06:21;;;;;;;;;;;9.30;99.90;;;;;;5038699;28;19928;-60
2023/01/07 07:08:47;;;;;;;;;;;9.40;99.90;;;;;;5038575;28;19921;-60
2023/01/07 07:11:14;;;;;;;;;;;9.40;99.90;;;;;;5038614;28;19921;-60
2023/01/07 07:13:41;;;;;;;;;;;9.40;99.90;;;;;;5038750;28;20284;-60
2023/01/07 07:16:07;;;;;;;;;;;9.40;99.90;;;;;;5038648;28;19946;-60
2023/01/07 07:18:35;;;;;;;;;;;9.50;99.90;;;;;;5038555;28;20031;-60
2023/01/07 07:21:02;;;;;;;;;;;9.50;99.90;;;;;;5038518;28;19925;-60
2023/01/07 07:23:28;;;;;;;;;;;9.50;99.90;;;;;;5046588;28;19921;-60
2023/01/07 07:25:55;;;;;;;;;;;9.50;99.90;;;;;;5053011;28;20315;-59
2023/01/07 07:28:22;;;;;;;;;;;9.40;99.90;;;;;;5058475;28;19921;-60
2023/01/07 07:30:48;;;;;;;;;;;9.40;99.90;;;;;;5058121;28;20379;-60
2023/01/07 07:33:17;;;;;;;;;;;9.40;99.90;;;;;;5058180;28;19925;-59
2023/01/07 07:35:45;;;;;;;;;;;9.40;99.90;;;;;;5058255;28;20401;-60
2023/01/07 07:38:12;;;;;;;;;;;9.50;99.90;;;;;;5057909;28;19974;-60
2023/01/07 07:40:38;;;;;;;;;;;9.40;99.90;;;;;;5058457;28;19924;-59
2023/01/07 07:43:05;;;;;;;;;;;9.40;99.90;;;;;;5058138;28;19921;-59
2023/01/07 07:45:31;;;;;;;;;;;9.50;99.90;;;;;;5058332;28;19924;-60
2023/01/07 07:47:58;;;;;;;;;;;9.50;99.90;;;;;;5057300;28;19974;-57
2023/01/07 07:50:25;;;;;;;;;;;9.50;99.90;;;;;;5043669;28;19936;-58
2023/01/07 07:52:52;;;;;;;;;;;9.50;99.90;;;;;;5040733;28;19921;-59
2023/01/07 07:55:19;;;;;;;;;;;9.50;99.90;;;;;;5037053;28;19921;-59
2023/01/07 07:57:45;;;;;;;;;;;9.50;99.90;;;;;;5034754;28;20027;-59
2023/01/07 08:00:13;;;;;;;;;;;9.60;99.90;;;;;;5034644;28;20367;-57
2023/01/07 08:02:39;;;;;;;;;;;9.60;99.90;;;;;;5034915;28;20390;-59
2023/01/07 08:05:07;;;;;;;;;;;9.60;99.90;;;;;;5034883;28;19921;-59
2023/01/07 08:07:33;;;;;;;;;;;9.60;99.90;;;;;;5035047;28;19921;-59
2023/01/07 08:10:01;;;;;;;;;;;9.60;99.90;;;;;;5034635;28;20380;-60
2023/01/07 08:12:27;;;;;;;;;;;9.60;99.90;;;;;;5034937;28;19975;-60
2023/01/07 08:14:54;;;;;;;;;;;9.60;99.90;;;;;;5034516;28;19921;-59
2023/01/07 08:17:20;;;;;;;;;;;9.60;99.90;;;;;;5034727;28;20303;-60
2023/01/07 08:20:14;;;;;;;;;;;9.60;99.90;;;;;;5034064;28;19924;-59
2023/01/07 08:22:41;;;;;;;;;;;9.70;99.90;;;;;;5027540;28;19975;-57
2023/01/07 08:25:09;;;;;;;;;;;9.70;99.90;;;;;;5038256;28;20343;-60
2023/01/07 08:27:36;;;;;;;;;;;9.70;99.90;;;;;;5034248;28;19924;-60
2023/01/07 08:30:02;;;;;;;;;;;9.70;99.90;;;;;;5034392;28;19921;-60
2023/01/07 08:32:29;;;;;;;;;;;9.70;99.90;;;;;;5034741;28;19925;-58
2023/01/07 08:34:56;;;;;;;;;;;9.70;99.90;;;;;;5034947;28;19967;-59
2023/01/07 08:37:23;;;;;;;;;;;9.70;99.90;;;;;;5034177;28;20016;-59
2023/01/07 08:39:49;;;;;;;;;;;9.80;99.90;;;;;;5033422;28;20331;-60
2023/01/07 08:42:17;;;;;;;;;;;9.80;99.90;;;;;;5034445;28;19979;-60
2023/01/07 08:44:44;;;;;;;;;;;9.80;99.90;;;;;;5034089;28;19921;-60
2023/01/07 08:47:10;;;;;;;;;;;9.80;99.90;;;;;;5034135;28;19987;-60
2023/01/07 08:49:37;;;;;;;;;;;9.80;99.90;;;;;;5033850;28;19951;-59
2023/01/07 08:52:03;;;;;;;;;;;9.90;99.90;;;;;;5033732;28;19921;-59
2023/01/07 08:54:30;;;;;;;;;;;9.90;99.90;;;;;;5042093;28;19924;-60
2023/01/07 08:56:56;;;;;;;;;;;9.80;99.90;;;;;;5034018;28;19921;-59
2023/01/07 08:59:24;;;;;;;;;;;9.80;99.90;;;;;;5033869;28;19975;-59
2023/01/07 09:01:51;;;;;;;;;;;9.80;99.90;;;;;;5034127;28;19925;-60
2023/01/07 09:04:17;;;;;;;;;;;9.80;99.90;;;;;;5033815;28;20300;-60
2023/01/07 09:06:44;;;;;;;;;;;9.80;99.90;;;;;;5033488;28;19921;-59
2023/01/07 09:09:13;;;;;;;;;;;9.80;99.90;;;;;;5033537;28;20321;-60
2023/01/07 09:11:39;;;;;;;;;;;9.80;99.90;;;;;;5033606;28;19921;-59
2023/01/07 09:14:06;;;;;;;;;;;9.90;99.90;;;;;;5033786;28;19921;-60
2023/01/07 09:16:34;;;;;;;;;;;9.90;99.90;;;;;;5033248;28;19921;-58
2023/01/07 09:19:01;;;;;;;;;;;9.80;99.90;;;;;;5032850;28;19942;-60
2023/01/07 09:21:27;;;;;;;;;;;9.90;99.90;;;;;;5032569;28;19927;-60
2023/01/07 09:23:54;;;;;;;;;;;9.90;99.90;;;;;;5038863;28;19928;-60
2023/01/07 09:26:20;;;;;;;;;;;9.90;99.90;;;;;;5034977;28;19921;-60
2023/01/07 09:28:47;;;;;;;;;;;9.90;99.90;;;;;;5033411;28;19925;-60
2023/01/07 09:31:13;;;;;;;;;;;9.90;99.90;;;;;;5032940;28;19932;-60
2023/01/07 09:33:41;;;;;;;;;;;9.90;99.90;;;;;;5033369;28;20376;-59
2023/01/07 09:36:08;;;;;;;;;;;9.90;99.90;;;;;;5032735;28;19920;-60
2023/01/07 09:38:35;;;;;;;;;;;9.80;99.90;;;;;;5033228;28;19921;-60
2023/01/07 09:41:01;;;;;;;;;;;9.80;99.90;;;;;;5033150;28;19921;-59
2023/01/07 09:43:32;;;;;;;;;;;9.90;99.90;;;;;;5032569;28;19925;-64
2023/01/07 09:45:59;;;;;;;;;;;9.90;99.90;;;;;;5032980;28;20300;-63
2023/01/07 09:48:28;;;;;;;;;;;9.90;99.90;;;;;;5032662;28;19921;-63
2023/01/07 09:51:00;;;;;;;;;;;9.90;99.90;;;;;;5033747;28;19925;-64
2023/01/07 09:53:27;;;;;;;;;;;9.90;99.90;;;;;;5036144;28;19920;-63
2023/01/07 09:55:54;;;;;;;;;;;10.00;99.90;;;;;;5035391;28;19921;-64
2023/01/07 09:58:22;;;;;;;;;;;9.90;99.90;;;;;;5040468;28;19925;-63
2023/01/07 10:00:57;;;;;;;;;;;9.90;99.90;;;;;;5046067;28;19925;-63
2023/01/07 10:03:27;;;;;;;;;;;9.90;99.90;;;;;;5033583;28;19920;-65
2023/01/07 10:06:03;;;;;;;;;;;9.90;99.90;;;;;;5027038;28;19944;-64
2023/01/07 10:08:36;;;;;;;;;;;9.90;99.90;;;;;;5032730;28;19928;-64
2023/01/07 10:11:08;;;;;;;;;;;9.90;99.90;;;;;;5033503;28;19928;-64
2023/01/07 10:13:42;;;;;;;;;;;9.90;99.90;;;;;;5032207;28;19929;-63
2023/01/07 10:16:14;;;;;;;;;;;10.00;99.90;;;;;;5032446;28;20431;-63
2023/01/07 10:18:46;;;;;;;;;;;10.00;99.90;;;;;;5032484;28;19921;-63
2023/01/07 10:21:16;;;;;;;;;;;10.00;99.90;;;;;;5032164;28;19983;-65
2023/01/07 10:23:45;;;;;;;;;;;10.00;99.90;;;;;;5040150;28;19928;-65
2023/01/07 10:26:15;;;;;;;;;;;10.10;99.90;;;;;;5048700;28;19924;-66
2023/01/07 10:28:44;;;;;;;;;;;10.10;99.90;;;;;;5052735;28;19921;-65
2023/01/07 10:31:15;;;;;;;;;;;10.10;99.90;;;;;;5052151;28;19921;-65
2023/01/07 10:33:44;;;;;;;;;;;10.10;99.90;;;;;;5052204;28;19921;-65
2023/01/07 10:36:19;;;;;;;;;;;10.20;99.90;;;;;;5052041;28;19921;-65
2023/01/07 10:38:50;;;;;;;;;;;10.20;99.90;;;;;;5051999;28;19928;-65
2023/01/07 10:41:22;;;;;;;;;;;10.30;99.90;;;;;;5052246;28;19928;-63
2023/01/07 10:43:55;;;;;;;;;;;10.40;99.90;;;;;;5052309;28;20587;-63
2023/01/07 10:46:29;;;;;;;;;;;10.40;99.90;;;;;;5051916;28;20350;-64
2023/01/07 10:49:08;;;;;;;;;;;10.40;99.30;;;;;;5052056;28;19921;-63
2023/01/07 10:51:44;;;;;;;;;;;10.40;96.00;;;;;;5051795;28;19920;-62
2023/01/07 10:54:16;;;;;;;;;;;10.40;99.90;;;;;;5043384;28;19924;-63
2023/01/07 10:56:44;;;;;;;;;;;10.40;95.80;;;;;;5031773;28;20336;-63
2023/01/07 10:59:13;;;;;;;;;;;10.40;88.20;;;;;;5032063;28;19924;-63
2023/01/07 11:01:40;;;;;;;;;;;10.50;71.20;;;;;;5031526;28;19967;-63
2023/01/07 11:04:11;;;;;;;;;;;10.60;89.50;;;;;;5031941;28;19921;-64
2023/01/07 11:06:41;;;;;;;;;;;10.60;79.30;;;;;;5031787;28;19921;-63
2023/01/07 11:09:10;;;;;;;;;;;10.70;77.70;;;;;;5032190;28;19921;-62
2023/01/07 11:11:39;;;;;;;;;;;10.80;53.50;;;;;;5031772;28;20384;-64
2023/01/07 11:14:10;;;;;;;;;;;10.90;34.70;;;;;;5031810;28;19921;-64
2023/01/07 11:16:38;;;;;;;;;;;10.90;25.40;;;;;;5031159;28;19928;-63
2023/01/07 11:19:05;;;;;;;;;;;11.00;5.20;;;;;;5031857;28;19921;-63
2023/01/07 11:21:33;;;;;;;;;;;11.00;10.00;;;;;;5031520;28;19967;-62
2023/01/07 11:24:00;;;;;;;;;;;11.00;17.60;;;;;;5041889;28;20305;-62
2023/01/07 11:26:29;;;;;;;;;;;11.00;1.00;;;;;;5044631;28;19920;-64
2023/01/07 11:28:58;;;;;;;;;;;11.00;1.00;;;;;;5046240;28;19924;-63
2023/01/07 11:31:39;;;;;;;;;;;11.00;1.00;;;;;;5055362;28;19974;-64
2023/01/07 11:34:06;;;;;;;;;;;11.10;1.00;;;;;;5055091;28;19920;-62
2023/01/07 11:36:39;;;;;;;;;;;11.10;1.00;;;;;;5055012;28;19967;-63
2023/01/07 11:39:08;;;;;;;;;;;11.00;1.00;;;;;;5055061;28;19921;-63
2023/01/07 11:41:35;;;;;;;;;;;10.90;1.00;;;;;;5041766;28;19974;-63
2023/01/07 11:44:03;;;;;;;;;;;10.90;1.00;;;;;;5023691;28;19979;-63
2023/01/07 11:46:30;;;;;;;;;;;10.90;1.00;;;;;;5043838;28;20387;-63
2023/01/07 11:48:59;;;;;;;;;;;10.90;1.00;;;;;;5040354;28;19968;-62
2023/01/07 11:51:26;;;;;;;;;;;10.90;1.00;;;;;;5029419;28;20281;-65
2023/01/07 11:53:55;;;;;;;;;;;10.90;1.00;;;;;;5042641;28;20360;-63
2023/01/07 11:56:29;;;;;;;;;;;10.80;1.00;;;;;;5053985;28;19966;-66
2023/01/07 11:59:22;;;;;;;;;;;10.70;1.00;;;;;;5055536;28;20383;-65
2023/01/07 12:01:51;;;;;;;;;;;10.70;1.00;;;;;;5018400;28;20350;-65
2023/01/07 12:04:22;;;;;;;;;;;10.70;1.00;;;;;;5053539;28;19928;-61
2023/01/07 12:06:49;;;;;;;;;;;10.60;1.00;;;;;;5053835;28;19928;-62
2023/01/07 12:09:21;;;;;;;;;;;10.70;1.00;;;;;;5054402;28;19924;-62
2023/01/07 12:11:48;;;;;;;;;;;10.60;1.00;;;;;;5054719;28;20427;-61
2023/01/07 12:14:19;;;;;;;;;;;10.60;1.00;;;;;;5054259;28;19936;-61
2023/01/07 12:16:46;;;;;;;;;;;10.60;1.00;;;;;;5048543;28;19925;-62
2023/01/07 12:19:18;;;;;;;;;;;10.60;1.00;;;;;;5033930;28;19921;-60
2023/01/07 12:21:51;;;;;;;;;;;10.60;1.00;;;;;;5033976;28;19928;-60
2023/01/07 12:24:24;;;;;;;;;;;10.60;1.00;;;;;;5043261;28;19975;-61
2023/01/07 12:26:54;;;;;;;;;;;10.60;1.00;;;;;;5053277;28;19924;-61
2023/01/07 12:29:24;;;;;;;;;;;10.60;1.00;;;;;;5053707;28;19932;-63
2023/01/07 12:32:00;;;;;;;;;;;10.60;1.00;;;;;;5054304;28;20257;-62
2023/01/07 12:34:33;;;;;;;;;;;10.50;1.00;;;;;;5053380;28;20011;-61
2023/01/07 12:37:01;;;;;;;;;;;10.50;1.00;;;;;;5053205;28;20402;-61
2023/01/07 12:39:30;;;;;;;;;;;10.50;1.00;;;;;;5053894;28;19954;-63
2023/01/07 12:42:02;;;;;;;;;;;10.50;1.00;;;;;;5053931;28;19932;-63
2023/01/07 12:44:28;;;;;;;;;;;10.50;1.00;;;;;;5054004;28;19929;-67
2023/01/07 12:46:58;;;;;;;;;;;10.50;1.00;;;;;;5053505;28;19944;-67
2023/01/07 12:49:27;;;;;;;;;;;10.60;1.00;;;;;;5053584;28;20344;-68
2023/01/07 12:51:57;;;;;;;;;;;10.70;1.00;;;;;;5053452;28;19927;-65
2023/01/07 12:54:30;;;;;;;;;;;10.50;1.00;;;;;;5039249;28;20003;-65
2023/01/07 12:56:59;;;;;;;;;;;10.50;1.00;;;;;;5033845;28;19932;-67
2023/01/07 12:59:29;;;;;;;;;;;10.50;1.00;;;;;;5033453;28;19925;-68
2023/01/07 13:02:01;;;;;;;;;;;10.50;1.00;;;;;;5033886;28;20422;-67
2023/01/07 13:04:33;;;;;;;;;;;10.40;1.00;;;;;;5033629;28;19964;-67
2023/01/07 13:07:05;;;;;;;;;;;10.50;1.00;;;;;;5033691;28;19928;-67
2023/01/07 13:09:37;;;;;;;;;;;10.50;1.00;;;;;;5033783;28;19920;-66
2023/01/07 13:14:54;;;;;;;;;;;10.70;1.00;;;;;;5033335;28;19927;-66
2023/01/07 13:17:24;;;;;;;;;;;10.70;1.00;;;;;;5033387;28;19925;-67
2023/01/07 13:19:50;;;;;;;;;;;10.80;1.00;;;;;;5033554;28;19975;-67
2023/01/07 13:22:24;;;;;;;;;;;10.80;1.00;;;;;;5034897;28;19979;-67
2023/01/07 13:24:58;;;;;;;;;;;10.80;1.00;;;;;;5044842;28;19921;-66
2023/01/07 13:27:29;;;;;;;;;;;10.80;1.00;;;;;;5052576;28;19920;-67
2023/01/07 13:30:02;;;;;;;;;;;10.70;1.00;;;;;;5052720;28;19928;-66
2023/01/07 13:32:50;;;;;;;;;;;10.70;1.00;;;;;;5053160;28;19925;-63
2023/01/07 13:35:24;;;;;;;;;;;10.70;1.00;;;;;;5052947;28;20383;-64
2023/01/07 13:38:00;;;;;;;;;;;10.70;1.00;;;;;;5052513;28;19927;-63
2023/01/07 13:40:37;;;;;;;;;;;10.70;1.00;;;;;;5052861;28;19921;-64
2023/01/07 13:43:09;;;;;;;;;;;10.70;1.00;;;;;;5053175;28;19974;-64
2023/01/07 13:45:36;;;;;;;;;;;10.60;1.00;;;;;;5052930;28;20319;-64
2023/01/07 13:48:04;;;;;;;;;;;10.60;1.00;;;;;;5051496;28;19974;-64
2023/01/07 13:50:34;;;;;;;;;;;10.50;1.00;;;;;;5052783;28;19921;-64
2023/01/07 13:53:03;;;;;;;;;;;10.50;1.00;;;;;;5045881;28;20012;-63
2023/01/07 13:55:37;;;;;;;;;;;10.50;1.00;;;;;;5041112;28;20015;-64
2023/01/07 13:58:19;;;;;;;;;;;10.40;1.00;;;;;;5032346;28;19928;-53
2023/01/07 14:01:00;;;;;;;;;;;10.40;1.00;;;;;;5032315;28;19928;-55
2023/01/07 14:03:34;;;;;;;;;;;10.40;1.00;;;;;;5032796;28;19991;-57
2023/01/07 14:06:31;;;;;;;;;;;10.40;1.00;;;;;;5032298;28;20425;-54
2023/01/07 14:09:10;;;;;;;;;;;10.40;1.00;;;;;;4971732;28;19961;-56
2023/01/07 14:11:44;;;;;;;;;;;10.30;1.00;;;;;;5023197;28;19921;-57
2023/01/07 14:14:15;;;;;;;;;;;10.30;1.00;;;;;;5032544;28;19921;-53
2023/01/07 14:16:43;;;;;;;;;;;10.40;1.00;;;;;;5032254;28;19921;-55
2023/01/07 14:19:13;;;;;;;;;;;10.30;1.00;;;;;;5032179;28;20420;-54
2023/01/07 14:21:55;;;;;;;;;;;10.30;1.00;;;;;;5032167;28;19921;-56
2023/01/07 14:24:36;;;;;;;;;;;10.20;1.00;;;;;;5042182;28;19921;-52
2023/01/07 14:27:11;;;;;;;;;;;10.30;1.00;;;;;;5038990;28;19975;-56
2023/01/07 14:29:42;;;;;;;;;;;10.30;1.00;;;;;;5051938;28;19925;-57
2023/01/07 14:32:12;;;;;;;;;;;10.20;1.00;;;;;;5052130;28;19925;-58
2023/01/07 14:34:39;;;;;;;;;;;10.20;1.00;;;;;;5052150;28;19939;-57
2023/01/07 14:37:13;;;;;;;;;;;10.20;1.00;;;;;;5052056;28;19920;-58
2023/01/07 14:39:41;;;;;;;;;;;10.30;1.00;;;;;;5047739;28;20435;-59